createdAt,value
2023-04-15T00:01:57.455Z,5.70
2023-04-15T00:04:27.327Z,5.45
2023-04-15T00:06:57.473Z,5.40
2023-04-15T00:09:28.058Z,5.57
2023-04-15T00:11:57.747Z,5.10
2023-04-15T00:14:27.726Z,4.72
2023-04-15T00:17:00.326Z,4.53
2023-04-15T00:19:30.945Z,4.50
2023-04-15T00:22:02.235Z,3.97
2023-04-15T00:24:32.948Z,3.63
2023-04-15T00:27:03.309Z,3.38
2023-04-15T00:29:33.648Z,3.55
2023-04-15T00:32:04.674Z,2.97
2023-04-15T00:34:35.313Z,2.92
2023-04-15T00:37:06.247Z,3.30
2023-04-15T00:39:36.281Z,3.65
2023-04-15T00:42:10.280Z,2.90
2023-04-15T00:44:39.974Z,3.03
2023-04-15T00:47:09.991Z,2.80
2023-04-15T00:49:39.744Z,2.63
2023-04-15T00:52:11.264Z,3.08
2023-04-15T00:54:40.911Z,3.08
2023-04-15T00:57:11.508Z,2.90
2023-04-15T00:59:42.225Z,2.85
2023-04-15T01:02:11.964Z,3.03
2023-04-15T01:04:41.761Z,2.50
2023-04-15T01:07:11.445Z,2.60
2023-04-15T01:09:41.778Z,2.30
2023-04-15T01:12:13.607Z,2.67
2023-04-15T01:14:43.253Z,2.90
2023-04-15T01:17:13.082Z,2.75
2023-04-15T01:19:43.003Z,2.20
2023-04-15T01:22:12.949Z,2.83
2023-04-15T01:24:42.636Z,2.42
2023-04-15T01:27:13.234Z,2.42
2023-04-15T01:29:43.178Z,2.33
2023-04-15T01:32:14.313Z,2.30
2023-04-15T01:34:46.494Z,2.50
2023-04-15T01:37:17.310Z,2.42
2023-04-15T01:39:48.643Z,2.20
2023-04-15T01:42:19.291Z,2.50
2023-04-15T01:44:49.417Z,2.35
2023-04-15T01:47:19.302Z,2.13
2023-04-15T01:49:49.070Z,2.28
2023-04-15T01:52:21.415Z,2.90
2023-04-15T01:54:51.218Z,2.28
2023-04-15T01:57:20.951Z,2.58
2023-04-15T01:59:52.671Z,2.38
2023-04-15T02:02:22.720Z,2.53
2023-04-15T02:04:53.129Z,2.53
2023-04-15T02:07:23.437Z,2.45
2023-04-15T02:09:53.719Z,2.70
2023-04-15T02:12:24.111Z,2.45
2023-04-15T02:14:54.115Z,2.40
2023-04-15T02:17:23.840Z,2.50
2023-04-15T02:19:58.371Z,2.30
2023-04-15T02:22:29.174Z,2.53
2023-04-15T02:24:58.780Z,2.25
2023-04-15T02:27:29.776Z,2.67
2023-04-15T02:30:00.227Z,2.63
2023-04-15T02:32:30.688Z,2.25
2023-04-15T02:35:07.081Z,2.45
2023-04-15T02:37:45.639Z,2.40
2023-04-15T02:40:18.271Z,2.53
2023-04-15T02:42:48.121Z,3.25
2023-04-15T02:45:18.281Z,2.38
2023-04-15T02:47:49.336Z,2.63
2023-04-15T02:50:22.458Z,2.83
2023-04-15T02:52:52.164Z,2.50
2023-04-15T02:55:25.314Z,3.00
2023-04-15T02:57:55.021Z,2.38
2023-04-15T03:00:27.252Z,2.53
2023-04-15T03:03:06.170Z,2.50
2023-04-15T03:05:36.028Z,2.60
2023-04-15T03:08:06.795Z,2.65
2023-04-15T03:10:36.485Z,2.60
2023-04-15T03:13:06.141Z,2.90
2023-04-15T03:15:39.625Z,2.92
2023-04-15T03:18:10.105Z,2.83
2023-04-15T03:20:43.609Z,2.72
2023-04-15T03:23:14.328Z,2.78
2023-04-15T03:25:44.009Z,2.60
2023-04-15T03:28:14.725Z,2.97
2023-04-15T03:30:45.241Z,2.55
2023-04-15T03:33:15.244Z,2.63
2023-04-15T03:35:45.292Z,2.53
2023-04-15T03:38:15.306Z,2.60
2023-04-15T03:40:48.794Z,2.40
2023-04-15T03:43:19.545Z,2.88
2023-04-15T03:45:49.859Z,2.63
2023-04-15T03:48:20.323Z,2.63
2023-04-15T03:50:50.109Z,2.90
2023-04-15T03:53:20.043Z,3.53
2023-04-15T03:55:50.468Z,2.80
2023-04-15T03:58:21.251Z,3.05
2023-04-15T04:00:51.687Z,2.80
2023-04-15T04:03:21.757Z,3.60
2023-04-15T04:05:52.841Z,2.70
2023-04-15T04:08:25.228Z,3.33
2023-04-15T04:10:54.956Z,3.10
2023-04-15T04:13:25.068Z,3.30
2023-04-15T04:15:57.461Z,3.42
2023-04-15T04:18:27.329Z,3.60
2023-04-15T04:20:57.084Z,3.20
2023-04-15T04:23:26.998Z,3.42
2023-04-15T04:25:57.401Z,3.60
2023-04-15T04:28:28.019Z,3.40
2023-04-15T04:30:59.100Z,3.88
2023-04-15T04:33:28.754Z,3.58
2023-04-15T04:35:58.460Z,3.60
2023-04-15T04:38:28.899Z,3.40
2023-04-15T04:40:58.571Z,3.40
2023-04-15T04:43:29.134Z,3.42
2023-04-15T04:45:58.916Z,3.42
2023-04-15T04:48:29.294Z,3.58
2023-04-15T04:50:58.980Z,3.63
2023-04-15T04:53:32.291Z,3.15
2023-04-15T04:56:03.100Z,3.50
2023-04-15T04:58:33.068Z,3.40
2023-04-15T05:01:03.118Z,3.13
2023-04-15T05:03:33.050Z,3.28
2023-04-15T05:06:07.364Z,3.83
2023-04-15T05:08:39.928Z,3.70
2023-04-15T05:11:11.306Z,3.55
2023-04-15T05:13:41.471Z,3.88
2023-04-15T05:16:11.196Z,3.28
2023-04-15T05:18:40.951Z,3.38
2023-04-15T05:21:10.996Z,3.70
2023-04-15T05:23:40.694Z,3.78
2023-04-15T05:26:10.592Z,3.60
2023-04-15T05:28:40.326Z,3.30
2023-04-15T05:31:10.782Z,3.63
2023-04-15T05:33:40.490Z,3.65
2023-04-15T05:36:12.914Z,3.97
2023-04-15T05:38:45.555Z,3.78
2023-04-15T05:41:19.584Z,3.33
2023-04-15T05:43:50.067Z,3.40
2023-04-15T05:46:20.524Z,3.95
2023-04-15T05:48:51.731Z,3.40
2023-04-15T05:51:22.876Z,3.72
2023-04-15T05:53:53.940Z,3.40
2023-04-15T05:56:23.741Z,3.78
2023-04-15T05:58:54.288Z,3.25
2023-04-15T06:01:23.984Z,3.58
2023-04-15T06:03:54.638Z,4.07
2023-04-15T06:06:24.918Z,3.97
2023-04-15T06:08:54.847Z,3.80
2023-04-15T06:11:24.602Z,4.50
2023-04-15T06:13:54.366Z,4.45
2023-04-15T06:16:25.632Z,4.32
2023-04-15T06:19:14.019Z,4.00
2023-04-15T06:21:43.690Z,4.45
2023-04-15T06:24:14.491Z,5.28
2023-04-15T06:26:44.178Z,4.68
2023-04-15T06:29:16.556Z,4.32
2023-04-15T06:31:46.229Z,4.47
2023-04-15T06:34:19.345Z,4.25
2023-04-15T06:36:49.023Z,4.28
2023-04-15T06:39:19.117Z,4.70
2023-04-15T06:41:50.048Z,4.55
2023-04-15T06:44:21.185Z,4.75
2023-04-15T06:46:51.475Z,4.50
2023-04-15T06:49:21.106Z,4.28
2023-04-15T06:51:50.812Z,4.00
2023-04-15T06:54:21.219Z,4.25
2023-04-15T06:56:50.967Z,4.68
2023-04-15T06:59:21.751Z,4.65
2023-04-15T07:01:52.470Z,4.53
2023-04-15T07:04:22.506Z,4.20
2023-04-15T07:06:52.978Z,4.30
2023-04-15T07:09:22.661Z,4.38
2023-04-15T07:11:55.029Z,4.72
2023-04-15T07:14:26.659Z,4.30
2023-04-15T07:16:56.375Z,4.30
2023-04-15T07:19:26.622Z,4.45
2023-04-15T07:21:56.258Z,4.50
2023-04-15T07:24:29.029Z,4.55
2023-04-15T07:27:01.215Z,4.32
2023-04-15T07:29:35.702Z,4.50
2023-04-15T07:32:08.579Z,4.35
2023-04-15T07:34:39.153Z,4.25
2023-04-15T07:37:09.569Z,4.18
2023-04-15T07:39:39.658Z,4.35
2023-04-15T07:42:10.304Z,4.28
2023-04-15T07:44:40.726Z,4.35
2023-04-15T07:47:10.335Z,4.00
2023-04-15T07:49:40.487Z,4.45
2023-04-15T07:52:10.189Z,4.38
2023-04-15T07:54:39.991Z,4.55
2023-04-15T07:57:09.610Z,4.18
2023-04-15T07:59:40.450Z,3.80
2023-04-15T08:02:10.955Z,3.88
2023-04-15T08:04:42.158Z,4.03
2023-04-15T08:07:12.499Z,4.15
2023-04-15T08:09:42.118Z,4.18
2023-04-15T08:12:15.860Z,4.03
2023-04-15T08:14:45.528Z,4.22
2023-04-15T08:17:15.240Z,4.70
2023-04-15T08:19:44.916Z,4.25
2023-04-15T08:22:18.076Z,3.95
2023-04-15T08:24:50.872Z,4.00
2023-04-15T08:27:20.641Z,3.95
2023-04-15T08:29:50.276Z,3.67
2023-04-15T08:32:20.695Z,3.83
2023-04-15T08:34:50.564Z,4.00
2023-04-15T08:37:20.211Z,3.88
2023-04-15T08:39:50.568Z,4.03
2023-04-15T08:42:21.512Z,3.72
2023-04-15T08:44:51.173Z,3.53
2023-04-15T08:47:22.029Z,3.78
2023-04-15T08:49:55.476Z,4.45
2023-04-15T08:52:25.465Z,3.63
2023-04-15T08:54:59.649Z,4.00
2023-04-15T08:57:32.340Z,3.85
2023-04-15T09:00:03.093Z,3.83
2023-04-15T09:02:34.749Z,3.80
2023-04-15T09:05:07.833Z,4.18
2023-04-15T09:07:38.198Z,3.63
2023-04-15T09:10:08.308Z,3.92
2023-04-15T09:12:38.530Z,4.03
2023-04-15T09:15:09.305Z,3.53
2023-04-15T09:17:44.085Z,3.75
2023-04-15T09:20:15.085Z,3.95
2023-04-15T09:22:45.547Z,4.18
2023-04-15T09:25:17.969Z,4.18
2023-04-15T09:27:54.677Z,3.80
2023-04-15T09:30:24.345Z,4.13
2023-04-15T09:32:58.141Z,4.60
2023-04-15T09:35:29.241Z,4.20
2023-04-15T09:38:11.617Z,3.90
2023-04-15T09:40:43.221Z,3.85
2023-04-15T09:43:15.871Z,3.70
2023-04-15T09:45:53.038Z,4.03
2023-04-15T09:48:31.434Z,3.90
2023-04-15T09:51:02.054Z,3.55
2023-04-15T09:53:32.011Z,4.10
2023-04-15T09:56:04.827Z,4.32
2023-04-15T09:58:36.556Z,3.97
2023-04-15T10:01:07.777Z,4.22
2023-04-15T10:03:40.826Z,3.85
2023-04-15T10:06:10.627Z,3.95
2023-04-15T10:08:40.279Z,4.00
2023-04-15T10:11:10.164Z,3.80
2023-04-15T10:13:39.753Z,4.57
2023-04-15T10:16:17.756Z,4.07
2023-04-15T10:18:48.647Z,3.63
2023-04-15T10:21:20.230Z,4.05
2023-04-15T10:23:50.343Z,3.85
2023-04-15T10:26:20.105Z,4.57
2023-04-15T10:28:50.476Z,4.10
2023-04-15T10:31:21.563Z,4.22
2023-04-15T10:33:51.348Z,4.53
2023-04-15T10:36:22.073Z,3.97
2023-04-15T10:38:51.720Z,3.97
2023-04-15T10:41:24.353Z,4.10
2023-04-15T10:43:55.592Z,4.18
2023-04-15T10:46:41.543Z,5.10
2023-04-15T10:49:14.669Z,4.50
2023-04-15T10:51:45.890Z,4.40
2023-04-15T10:54:29.160Z,4.53
2023-04-15T10:57:04.584Z,3.90
2023-04-15T11:00:05.781Z,4.47
2023-04-15T11:02:44.799Z,4.65
2023-04-15T11:05:15.410Z,5.20
2023-04-15T11:07:56.048Z,5.10
2023-04-15T11:10:28.845Z,5.28
2023-04-15T11:13:18.069Z,5.90
2023-04-15T11:15:48.045Z,5.53
2023-04-15T11:18:27.950Z,5.55
2023-04-15T11:21:01.184Z,5.15
2023-04-15T11:23:32.100Z,5.63
2023-04-15T11:26:02.529Z,5.93
2023-04-15T11:28:33.415Z,5.70
2023-04-15T11:31:10.044Z,6.40
2023-04-15T11:33:39.985Z,6.22
2023-04-15T11:36:09.651Z,6.00
2023-04-15T11:38:39.524Z,6.72
2023-04-15T11:41:09.170Z,6.97
2023-04-15T11:43:38.795Z,6.05
2023-04-15T11:46:09.590Z,6.45
2023-04-15T11:48:39.334Z,6.25
2023-04-15T11:51:09.591Z,6.05
2023-04-15T11:53:47.489Z,5.60
2023-04-15T11:56:27.653Z,6.00
2023-04-15T11:59:00.158Z,6.60
2023-04-15T12:01:44.570Z,6.28
2023-04-15T12:04:20.774Z,6.78
2023-04-15T12:06:53.001Z,6.40
2023-04-15T12:09:23.505Z,5.80
2023-04-15T12:12:00.006Z,6.00
2023-04-15T12:14:30.771Z,6.50
2023-04-15T12:17:07.458Z,6.57
2023-04-15T12:19:44.592Z,5.93
2023-04-15T12:22:16.776Z,6.15
2023-04-15T12:24:49.482Z,5.80
2023-04-15T12:27:19.462Z,5.65
2023-04-15T12:29:49.278Z,6.57
2023-04-15T12:32:22.322Z,6.05
2023-04-15T12:34:58.352Z,6.30
2023-04-15T12:37:28.786Z,6.75
2023-04-15T12:39:58.488Z,5.88
2023-04-15T12:42:28.185Z,5.85
2023-04-15T12:44:58.456Z,5.70
2023-04-15T12:47:28.194Z,6.95
2023-04-15T12:49:57.918Z,5.97
2023-04-15T12:52:27.817Z,6.13
2023-04-15T12:54:57.634Z,7.03
2023-04-15T12:57:27.321Z,6.90
2023-04-15T12:59:57.054Z,6.20
2023-04-15T13:02:28.772Z,6.28
2023-04-15T13:04:58.548Z,6.45
2023-04-15T13:07:28.247Z,6.25
2023-04-15T13:09:58.508Z,6.53
2023-04-15T13:12:28.821Z,6.78
2023-04-15T13:14:58.793Z,6.07
2023-04-15T13:17:28.468Z,6.97
2023-04-15T13:19:58.624Z,7.03
2023-04-15T13:22:28.696Z,6.57
2023-04-15T13:24:58.352Z,7.13
2023-04-15T13:27:27.995Z,6.43
2023-04-15T13:29:57.830Z,7.30
2023-04-15T13:32:27.793Z,7.32
2023-04-15T13:34:57.862Z,6.70
2023-04-15T13:37:30.674Z,7.25
2023-04-15T13:40:00.364Z,7.55
2023-04-15T13:42:30.056Z,7.10
2023-04-15T13:44:59.688Z,7.20
2023-04-15T13:47:29.348Z,6.95
2023-04-15T13:49:59.239Z,8.35
2023-04-15T13:52:29.906Z,6.82
2023-04-15T13:55:07.895Z,7.00
2023-04-15T13:57:49.222Z,7.43
2023-04-15T14:00:19.306Z,7.25
2023-04-15T14:02:49.067Z,7.28
2023-04-15T14:05:18.860Z,7.38
2023-04-15T14:07:48.514Z,7.97
2023-04-15T14:10:18.152Z,7.47
2023-04-15T14:12:47.806Z,6.88
2023-04-15T14:15:17.509Z,7.93
2023-04-15T14:17:47.399Z,8.02
2023-04-15T14:20:17.303Z,7.47
2023-04-15T14:22:47.161Z,7.40
2023-04-15T14:25:30.518Z,7.53
2023-04-15T14:28:03.812Z,8.48
2023-04-15T14:30:33.528Z,8.07
2023-04-15T14:33:06.068Z,7.78
2023-04-15T14:35:35.843Z,7.72
2023-04-15T14:38:05.687Z,8.10
2023-04-15T14:40:36.095Z,8.05
2023-04-15T14:43:06.024Z,7.63
2023-04-15T14:45:35.762Z,8.43
2023-04-15T14:48:05.745Z,8.32
2023-04-15T14:50:35.372Z,7.85
2023-04-15T14:53:07.787Z,8.02
2023-04-15T14:55:37.576Z,7.65
2023-04-15T14:58:08.055Z,8.32
2023-04-15T15:00:40.826Z,8.45
2023-04-15T15:03:16.710Z,8.27
2023-04-15T15:05:48.298Z,8.05
2023-04-15T15:08:17.988Z,8.23
2023-04-15T15:10:50.361Z,8.32
2023-04-15T15:13:20.819Z,9.57
2023-04-15T15:15:53.480Z,8.13
2023-04-15T15:18:23.270Z,8.50
2023-04-15T15:20:52.957Z,8.68
2023-04-15T15:23:22.619Z,9.50
2023-04-15T15:25:52.272Z,9.32
2023-04-15T15:28:23.322Z,8.50
2023-04-15T15:30:53.031Z,9.75
2023-04-15T15:33:22.737Z,9.70
2023-04-15T15:35:52.705Z,9.77
2023-04-15T15:38:22.336Z,8.70
2023-04-15T15:40:57.063Z,9.25
2023-04-15T15:43:26.673Z,9.67
2023-04-15T15:45:57.078Z,9.40
2023-04-15T15:48:26.920Z,9.25
2023-04-15T15:50:56.864Z,10.10
2023-04-15T15:53:27.424Z,9.75
2023-04-15T15:55:57.681Z,9.40
2023-04-15T15:58:27.466Z,10.30
2023-04-15T16:00:57.945Z,9.63
2023-04-15T16:03:28.916Z,10.15
2023-04-15T16:05:58.628Z,9.25
2023-04-15T16:08:28.690Z,10.18
2023-04-15T16:10:58.413Z,9.90
2023-04-15T16:13:28.917Z,10.07
2023-04-15T16:15:58.619Z,9.70
2023-04-15T16:18:28.302Z,9.55
2023-04-15T16:20:57.929Z,10.73
2023-04-15T16:23:27.967Z,9.68
2023-04-15T16:25:57.690Z,9.82
2023-04-15T16:28:27.545Z,10.43
2023-04-15T16:30:58.605Z,9.63
2023-04-15T16:33:28.568Z,10.80
2023-04-15T16:35:58.202Z,11.50
2023-04-15T16:38:27.927Z,10.23
2023-04-15T16:40:57.847Z,10.23
2023-04-15T16:43:27.920Z,11.18
2023-04-15T16:45:57.989Z,10.98
2023-04-15T16:48:27.815Z,10.63
2023-04-15T16:50:57.437Z,10.18
2023-04-15T16:53:27.170Z,10.35
2023-04-15T16:55:57.031Z,10.07
2023-04-15T16:58:26.708Z,10.13
2023-04-15T17:00:56.376Z,10.70
2023-04-15T17:03:26.244Z,10.43
2023-04-15T17:05:56.082Z,10.85
2023-04-15T17:08:25.726Z,10.50
2023-04-15T17:10:56.719Z,10.45
2023-04-15T17:13:27.543Z,10.73
2023-04-15T17:15:57.226Z,11.05
2023-04-15T17:18:27.112Z,11.52
2023-04-15T17:20:58.264Z,11.07
2023-04-15T17:23:28.816Z,11.65
2023-04-15T17:25:58.465Z,11.52
2023-04-15T17:28:28.165Z,11.57
2023-04-15T17:30:57.843Z,11.05
2023-04-15T17:33:59.903Z,11.60
2023-04-15T17:36:17.926Z,11.40
2023-04-15T17:38:47.617Z,12.10
2023-04-15T17:41:17.347Z,11.48
2023-04-15T17:43:47.050Z,11.57
2023-04-15T17:46:16.773Z,12.38
2023-04-15T17:48:46.812Z,12.15
2023-04-15T17:51:16.759Z,11.52
2023-04-15T17:53:46.374Z,12.27
2023-04-15T17:56:16.056Z,12.40
2023-04-15T17:58:46.534Z,12.15
2023-04-15T18:01:16.211Z,12.07
2023-04-15T18:03:46.725Z,12.65
2023-04-15T18:06:18.054Z,12.18
2023-04-15T18:08:47.801Z,13.30
2023-04-15T18:11:17.624Z,12.77
2023-04-15T18:13:47.429Z,12.70
2023-04-15T18:16:17.253Z,12.80
2023-04-15T18:18:46.979Z,12.27
2023-04-15T18:21:16.587Z,13.23
2023-04-15T18:23:47.211Z,13.35
2023-04-15T18:26:17.196Z,12.70
2023-04-15T18:28:46.870Z,12.32
2023-04-15T18:31:16.495Z,13.00
2023-04-15T18:33:46.148Z,12.63
2023-04-15T18:36:15.772Z,13.68
2023-04-15T18:38:47.173Z,13.75
2023-04-15T18:41:16.784Z,13.20
2023-04-15T18:43:46.408Z,12.93
2023-04-15T18:46:16.326Z,13.02
2023-04-15T18:48:45.996Z,13.45
2023-04-15T18:51:15.621Z,12.18
2023-04-15T18:53:45.262Z,12.02
2023-04-15T18:56:14.896Z,13.50
2023-04-15T18:59:18.113Z,12.73
2023-04-15T19:01:34.786Z,13.30
2023-04-15T19:04:04.801Z,12.10
2023-04-15T19:06:35.306Z,13.20
2023-04-15T19:09:05.157Z,13.40
2023-04-15T19:11:34.896Z,13.95
2023-04-15T19:14:04.628Z,12.73
2023-04-15T19:16:34.353Z,11.88
2023-04-15T19:19:04.303Z,12.90
2023-04-15T19:21:34.095Z,12.38
2023-04-15T19:24:03.717Z,12.85
2023-04-15T19:26:33.337Z,12.55
2023-04-15T19:29:03.236Z,13.10
2023-04-15T19:31:33.129Z,13.35
2023-04-15T19:34:03.373Z,13.48
2023-04-15T19:36:33.756Z,12.45
2023-04-15T19:39:03.788Z,12.65
2023-04-15T19:41:33.625Z,13.45
2023-04-15T19:44:04.601Z,13.73
2023-04-15T19:46:34.437Z,12.82
2023-04-15T19:49:04.534Z,12.95
2023-04-15T19:51:34.445Z,12.68
2023-04-15T19:54:05.139Z,13.73
2023-04-15T19:56:34.858Z,13.45
2023-04-15T19:59:04.797Z,13.82
2023-04-15T20:01:34.648Z,13.05
2023-04-15T20:04:05.484Z,13.15
2023-04-15T20:06:35.323Z,13.30
2023-04-15T20:09:05.398Z,13.15
2023-04-15T20:12:06.100Z,13.30
2023-04-15T20:14:26.534Z,12.48
2023-04-15T20:16:56.238Z,12.50
2023-04-15T20:19:26.652Z,11.63
2023-04-15T20:21:56.280Z,12.43
2023-04-15T20:24:25.961Z,11.65
2023-04-15T20:26:55.614Z,12.05
2023-04-15T20:29:25.705Z,12.68
2023-04-15T20:31:55.307Z,12.48
2023-04-15T20:34:24.976Z,12.30
2023-04-15T20:36:54.613Z,12.38
2023-04-15T20:39:24.434Z,12.35
2023-04-15T20:41:56.911Z,12.60
2023-04-15T20:44:26.683Z,12.30
2023-04-15T20:46:56.334Z,13.20
2023-04-15T20:49:26.399Z,12.85
2023-04-15T20:51:56.113Z,12.63
2023-04-15T20:54:25.769Z,11.93
2023-04-15T20:56:59.622Z,13.02
2023-04-15T20:59:29.441Z,12.82
2023-04-15T21:01:59.687Z,12.75
2023-04-15T21:04:29.362Z,13.27
2023-04-15T21:06:58.990Z,12.02
2023-04-15T21:09:28.640Z,13.55
2023-04-15T21:12:01.666Z,12.65
2023-04-15T21:14:32.558Z,12.63
2023-04-15T21:17:10.598Z,12.60
2023-04-15T21:19:41.861Z,13.25
2023-04-15T21:22:11.521Z,12.70
2023-04-15T21:24:41.157Z,13.50
2023-04-15T21:27:11.723Z,12.90
2023-04-15T21:29:41.919Z,11.98
2023-04-15T21:32:11.687Z,13.38
2023-04-15T21:34:41.382Z,12.45
2023-04-15T21:37:11.062Z,12.55
2023-04-15T21:39:40.729Z,14.55
2023-04-15T21:42:10.471Z,12.38
2023-04-15T21:44:40.156Z,13.02
2023-04-15T21:47:09.833Z,12.63
2023-04-15T21:49:39.852Z,12.55
2023-04-15T21:52:09.554Z,13.18
2023-04-15T21:54:39.587Z,12.55
2023-04-15T21:57:09.285Z,12.80
2023-04-15T21:59:38.884Z,12.32
2023-04-15T22:02:08.611Z,13.25
2023-04-15T22:04:38.348Z,12.70
2023-04-15T22:07:08.007Z,13.43
2023-04-15T22:09:37.827Z,12.70
2023-04-15T22:12:08.114Z,12.25
2023-04-15T22:14:37.790Z,12.15
2023-04-15T22:17:07.491Z,12.07
2023-04-15T22:19:37.198Z,12.82
2023-04-15T22:22:06.898Z,13.00
2023-04-15T22:24:39.957Z,12.75
2023-04-15T22:27:10.464Z,12.80
2023-04-15T22:29:40.137Z,13.50
2023-04-15T22:32:10.025Z,13.85
2023-04-15T22:34:39.644Z,12.75
2023-04-15T22:37:09.287Z,13.95
2023-04-15T22:39:38.958Z,14.75
2023-04-15T22:42:08.566Z,13.32
2023-04-15T22:44:38.218Z,13.93
2023-04-15T22:47:07.952Z,12.70
2023-04-15T22:49:38.084Z,13.55
2023-04-15T22:52:12.135Z,14.13
2023-04-15T22:54:42.236Z,13.23
2023-04-15T22:57:11.824Z,14.20
2023-04-15T22:59:41.500Z,13.55
2023-04-15T23:02:11.336Z,13.50
2023-04-15T23:04:41.185Z,13.23
2023-04-15T23:07:11.039Z,14.18
2023-04-15T23:09:41.311Z,14.07
2023-04-15T23:12:10.926Z,13.80
2023-04-15T23:14:40.541Z,13.07
2023-04-15T23:17:10.314Z,13.90
2023-04-15T23:19:40.546Z,13.38
2023-04-15T23:22:12.120Z,14.18
2023-04-15T23:24:41.744Z,13.80
2023-04-15T23:27:11.400Z,13.07
2023-04-15T23:29:41.075Z,12.75
2023-04-15T23:32:10.695Z,13.50
2023-04-15T23:34:40.366Z,13.40
2023-04-15T23:37:10.070Z,13.88
2023-04-15T23:39:39.743Z,14.48
2023-04-15T23:42:09.426Z,13.70
2023-04-15T23:44:41.839Z,14.18
2023-04-15T23:47:12.185Z,13.27
2023-04-15T23:49:42.504Z,13.35
2023-04-15T23:52:12.398Z,14.27
2023-04-15T23:54:42.440Z,13.52
2023-04-15T23:57:12.073Z,14.15
2023-04-15T23:59:41.836Z,14.23
